Terminal Aerodrome Forecast
Issued by NWS

Home | Current Version | Previous Version | Text Only | Print | Product List | Glossary On
Versions: 1 2 3 4 5 6 7 8 9 10 11 12 13 14 15 16 17 18 19 20 21 22 23 24
288
FTUS46 KMFR 232344
TAFLMT
TAF
KLMT 232344Z 2400/2424 20012G20KT P6SM SCT050 BKN080 OVC120
     FM240300 17017G27KT P6SM VCSH BKN050 OVC080
     FM240900 17015G25KT 6SM -RA BR SCT020 BKN040 OVC060
     FM242100 21012KT P6SM SCT040 BKN060=

USA.gov is the U.S. government's official web portal to all federal, state and local government web resources and services.